sensor_id;sensor_type;location;lat;lon;timestamp;P1;durP1;ratioP1;P2;durP2;ratioP2
44536;SDS011;30245;51.966;6.292;2024-01-07T00:01:25;36.63;;;20.13;;
44536;SDS011;30245;51.966;6.292;2024-01-07T00:03:51;34.77;;;19.20;;
44536;SDS011;30245;51.966;6.292;2024-01-07T00:06:17;40.30;;;18.90;;
44536;SDS011;30245;51.966;6.292;2024-01-07T00:08:43;31.20;;;17.23;;
44536;SDS011;30245;51.966;6.292;2024-01-07T00:11:08;30.13;;;16.03;;
44536;SDS011;30245;51.966;6.292;2024-01-07T00:13:34;27.23;;;15.47;;
44536;SDS011;30245;51.966;6.292;2024-01-07T00:16:00;32.23;;;17.43;;
44536;SDS011;30245;51.966;6.292;2024-01-07T00:18:26;29.07;;;16.50;;
44536;SDS011;30245;51.966;6.292;2024-01-07T00:20:52;28.57;;;15.90;;
44536;SDS011;30245;51.966;6.292;2024-01-07T00:23:18;26.37;;;14.33;;
44536;SDS011;30245;51.966;6.292;2024-01-07T00:25:45;32.10;;;16.50;;
44536;SDS011;30245;51.966;6.292;2024-01-07T00:28:11;22.53;;;14.43;;
44536;SDS011;30245;51.966;6.292;2024-01-07T00:30:37;25.97;;;15.77;;
44536;SDS011;30245;51.966;6.292;2024-01-07T00:33:03;30.77;;;16.27;;
44536;SDS011;30245;51.966;6.292;2024-01-07T00:35:28;29.87;;;14.97;;
44536;SDS011;30245;51.966;6.292;2024-01-07T00:37:54;25.93;;;16.37;;
44536;SDS011;30245;51.966;6.292;2024-01-07T00:40:21;30.53;;;15.33;;
44536;SDS011;30245;51.966;6.292;2024-01-07T00:42:50;26.00;;;15.23;;
44536;SDS011;30245;51.966;6.292;2024-01-07T00:45:16;25.77;;;15.77;;
44536;SDS011;30245;51.966;6.292;2024-01-07T00:47:42;25.83;;;15.83;;
44536;SDS011;30245;51.966;6.292;2024-01-07T00:50:08;30.43;;;16.70;;
44536;SDS011;30245;51.966;6.292;2024-01-07T00:52:34;29.60;;;15.23;;
44536;SDS011;30245;51.966;6.292;2024-01-07T00:55:02;27.23;;;15.50;;
44536;SDS011;30245;51.966;6.292;2024-01-07T00:57:29;29.10;;;17.50;;
44536;SDS011;30245;51.966;6.292;2024-01-07T00:59:54;22.17;;;12.90;;
44536;SDS011;30245;51.966;6.292;2024-01-07T01:02:20;23.07;;;14.60;;
44536;SDS011;30245;51.966;6.292;2024-01-07T01:04:46;23.40;;;14.90;;
44536;SDS011;30245;51.966;6.292;2024-01-07T01:07:11;24.40;;;13.53;;
44536;SDS011;30245;51.966;6.292;2024-01-07T01:09:37;23.57;;;14.03;;
44536;SDS011;30245;51.966;6.292;2024-01-07T01:12:03;20.90;;;13.37;;
44536;SDS011;30245;51.966;6.292;2024-01-07T01:14:29;24.90;;;14.63;;
44536;SDS011;30245;51.966;6.292;2024-01-07T01:16:54;21.70;;;13.20;;
44536;SDS011;30245;51.966;6.292;2024-01-07T01:19:20;22.10;;;12.97;;
44536;SDS011;30245;51.966;6.292;2024-01-07T01:21:46;18.70;;;11.90;;
44536;SDS011;30245;51.966;6.292;2024-01-07T01:24:11;23.23;;;13.57;;
44536;SDS011;30245;51.966;6.292;2024-01-07T01:26:37;23.60;;;13.47;;
44536;SDS011;30245;51.966;6.292;2024-01-07T01:29:04;18.87;;;11.93;;
44536;SDS011;30245;51.966;6.292;2024-01-07T01:31:30;24.43;;;13.97;;
44536;SDS011;30245;51.966;6.292;2024-01-07T01:33:55;24.23;;;13.80;;
44536;SDS011;30245;51.966;6.292;2024-01-07T01:36:21;21.07;;;12.13;;
44536;SDS011;30245;51.966;6.292;2024-01-07T01:38:46;24.93;;;14.30;;
44536;SDS011;30245;51.966;6.292;2024-01-07T01:41:13;21.10;;;13.93;;
44536;SDS011;30245;51.966;6.292;2024-01-07T01:43:39;19.43;;;13.60;;
44536;SDS011;30245;51.966;6.292;2024-01-07T01:46:05;22.63;;;13.30;;
44536;SDS011;30245;51.966;6.292;2024-01-07T01:48:30;18.37;;;11.47;;
44536;SDS011;30245;51.966;6.292;2024-01-07T01:50:56;20.60;;;11.57;;
44536;SDS011;30245;51.966;6.292;2024-01-07T01:53:23;15.20;;;10.37;;
44536;SDS011;30245;51.966;6.292;2024-01-07T01:55:52;20.93;;;11.13;;
44536;SDS011;30245;51.966;6.292;2024-01-07T01:58:20;17.20;;;10.32;;
44536;SDS011;30245;51.966;6.292;2024-01-07T02:00:46;15.30;;;8.57;;
44536;SDS011;30245;51.966;6.292;2024-01-07T02:03:12;13.97;;;9.27;;
44536;SDS011;30245;51.966;6.292;2024-01-07T02:05:38;12.10;;;8.20;;
44536;SDS011;30245;51.966;6.292;2024-01-07T02:08:04;13.10;;;9.33;;
44536;SDS011;30245;51.966;6.292;2024-01-07T02:10:30;15.40;;;9.40;;
44536;SDS011;30245;51.966;6.292;2024-01-07T02:15:25;13.37;;;7.83;;
44536;SDS011;30245;51.966;6.292;2024-01-07T02:17:50;13.03;;;8.80;;
44536;SDS011;30245;51.966;6.292;2024-01-07T02:20:16;13.53;;;9.40;;
44536;SDS011;30245;51.966;6.292;2024-01-07T02:22:42;15.30;;;8.77;;
44536;SDS011;30245;51.966;6.292;2024-01-07T02:25:07;13.03;;;8.33;;
44536;SDS011;30245;51.966;6.292;2024-01-07T02:27:33;13.77;;;8.83;;
44536;SDS011;30245;51.966;6.292;2024-01-07T02:29:59;11.13;;;8.40;;
44536;SDS011;30245;51.966;6.292;2024-01-07T02:32:25;17.23;;;10.67;;
44536;SDS011;30245;51.966;6.292;2024-01-07T02:34:51;11.80;;;8.77;;
44536;SDS011;30245;51.966;6.292;2024-01-07T02:37:17;13.43;;;8.33;;
44536;SDS011;30245;51.966;6.292;2024-01-07T02:39:42;11.80;;;7.93;;
44536;SDS011;30245;51.966;6.292;2024-01-07T02:42:09;12.53;;;8.57;;
44536;SDS011;30245;51.966;6.292;2024-01-07T02:44:35;11.47;;;8.43;;
44536;SDS011;30245;51.966;6.292;2024-01-07T02:47:00;15.50;;;9.13;;
44536;SDS011;30245;51.966;6.292;2024-01-07T02:49:26;13.37;;;9.20;;
44536;SDS011;30245;51.966;6.292;2024-01-07T02:51:52;14.93;;;9.97;;
44536;SDS011;30245;51.966;6.292;2024-01-07T02:54:18;14.50;;;8.80;;
44536;SDS011;30245;51.966;6.292;2024-01-07T02:56:44;10.80;;;6.73;;
44536;SDS011;30245;51.966;6.292;2024-01-07T02:59:09;14.13;;;9.03;;
44536;SDS011;30245;51.966;6.292;2024-01-07T03:01:35;13.77;;;8.80;;
44536;SDS011;30245;51.966;6.292;2024-01-07T03:04:05;12.73;;;8.83;;
44536;SDS011;30245;51.966;6.292;2024-01-07T03:06:35;14.97;;;9.03;;
44536;SDS011;30245;51.966;6.292;2024-01-07T03:09:00;11.67;;;7.87;;
44536;SDS011;30245;51.966;6.292;2024-01-07T03:11:26;10.30;;;7.87;;
44536;SDS011;30245;51.966;6.292;2024-01-07T03:13:51;12.60;;;9.17;;
44536;SDS011;30245;51.966;6.292;2024-01-07T03:16:20;10.97;;;7.70;;
44536;SDS011;30245;51.966;6.292;2024-01-07T03:18:47;9.80;;;7.27;;
44536;SDS011;30245;51.966;6.292;2024-01-07T03:21:22;13.73;;;10.00;;
44536;SDS011;30245;51.966;6.292;2024-01-07T03:23:49;13.27;;;8.83;;
44536;SDS011;30245;51.966;6.292;2024-01-07T03:26:16;9.83;;;7.97;;
44536;SDS011;30245;51.966;6.292;2024-01-07T03:28:43;13.40;;;8.23;;
44536;SDS011;30245;51.966;6.292;2024-01-07T03:31:10;10.97;;;7.23;;
44536;SDS011;30245;51.966;6.292;2024-01-07T03:33:39;15.93;;;9.17;;
44536;SDS011;30245;51.966;6.292;2024-01-07T03:36:08;12.47;;;8.40;;
44536;SDS011;30245;51.966;6.292;2024-01-07T03:38:35;15.20;;;9.53;;
44536;SDS011;30245;51.966;6.292;2024-01-07T03:41:01;11.43;;;8.47;;
44536;SDS011;30245;51.966;6.292;2024-01-07T03:43:26;15.87;;;9.47;;
44536;SDS011;30245;51.966;6.292;2024-01-07T03:45:52;13.80;;;9.93;;
44536;SDS011;30245;51.966;6.292;2024-01-07T03:48:18;11.57;;;7.93;;
44536;SDS011;30245;51.966;6.292;2024-01-07T03:50:44;10.33;;;8.10;;
44536;SDS011;30245;51.966;6.292;2024-01-07T03:53:10;11.33;;;8.17;;
44536;SDS011;30245;51.966;6.292;2024-01-07T03:55:36;11.40;;;8.03;;
44536;SDS011;30245;51.966;6.292;2024-01-07T03:58:02;12.23;;;8.27;;
44536;SDS011;30245;51.966;6.292;2024-01-07T04:00:28;10.20;;;6.57;;
44536;SDS011;30245;51.966;6.292;2024-01-07T04:02:53;9.80;;;7.87;;
44536;SDS011;30245;51.966;6.292;2024-01-07T04:05:19;11.87;;;8.37;;
44536;SDS011;30245;51.966;6.292;2024-01-07T04:07:44;10.53;;;7.27;;
44536;SDS011;30245;51.966;6.292;2024-01-07T04:10:10;9.43;;;7.63;;
44536;SDS011;30245;51.966;6.292;2024-01-07T04:12:36;10.27;;;7.97;;
44536;SDS011;30245;51.966;6.292;2024-01-07T04:15:02;9.57;;;7.07;;
44536;SDS011;30245;51.966;6.292;2024-01-07T04:17:28;13.43;;;7.47;;
44536;SDS011;30245;51.966;6.292;2024-01-07T04:19:54;11.10;;;7.60;;
44536;SDS011;30245;51.966;6.292;2024-01-07T04:22:19;10.40;;;7.97;;
44536;SDS011;30245;51.966;6.292;2024-01-07T04:24:45;10.20;;;7.50;;
44536;SDS011;30245;51.966;6.292;2024-01-07T04:27:11;10.37;;;6.07;;
44536;SDS011;30245;51.966;6.292;2024-01-07T04:29:36;9.37;;;7.00;;
44536;SDS011;30245;51.966;6.292;2024-01-07T04:32:02;8.93;;;7.10;;
44536;SDS011;30245;51.966;6.292;2024-01-07T04:34:28;9.07;;;7.53;;
44536;SDS011;30245;51.966;6.292;2024-01-07T04:36:53;11.33;;;8.17;;
44536;SDS011;30245;51.966;6.292;2024-01-07T04:39:19;12.23;;;7.93;;
44536;SDS011;30245;51.966;6.292;2024-01-07T04:41:45;12.27;;;8.63;;
44536;SDS011;30245;51.966;6.292;2024-01-07T04:44:10;8.73;;;6.70;;
44536;SDS011;30245;51.966;6.292;2024-01-07T04:46:39;9.03;;;6.70;;
44536;SDS011;30245;51.966;6.292;2024-01-07T04:49:05;12.43;;;8.60;;
44536;SDS011;30245;51.966;6.292;2024-01-07T04:51:31;8.50;;;6.87;;
44536;SDS011;30245;51.966;6.292;2024-01-07T04:54:01;8.07;;;6.37;;
44536;SDS011;30245;51.966;6.292;2024-01-07T04:56:27;9.33;;;6.87;;
44536;SDS011;30245;51.966;6.292;2024-01-07T04:58:52;7.53;;;6.50;;
44536;SDS011;30245;51.966;6.292;2024-01-07T05:01:18;8.73;;;6.77;;
44536;SDS011;30245;51.966;6.292;2024-01-07T05:03:44;10.13;;;6.50;;
44536;SDS011;30245;51.966;6.292;2024-01-07T05:06:09;10.93;;;7.20;;
44536;SDS011;30245;51.966;6.292;2024-01-07T05:08:40;10.00;;;7.13;;
44536;SDS011;30245;51.966;6.292;2024-01-07T05:11:06;6.83;;;5.93;;
44536;SDS011;30245;51.966;6.292;2024-01-07T05:13:32;10.70;;;7.70;;
44536;SDS011;30245;51.966;6.292;2024-01-07T05:15:58;9.93;;;7.13;;
44536;SDS011;30245;51.966;6.292;2024-01-07T05:18:23;9.57;;;8.57;;
44536;SDS011;30245;51.966;6.292;2024-01-07T05:20:49;10.93;;;7.53;;
44536;SDS011;30245;51.966;6.292;2024-01-07T05:23:15;8.37;;;6.93;;
44536;SDS011;30245;51.966;6.292;2024-01-07T05:25:44;10.73;;;7.70;;
44536;SDS011;30245;51.966;6.292;2024-01-07T05:28:11;8.43;;;7.63;;
44536;SDS011;30245;51.966;6.292;2024-01-07T05:30:41;12.17;;;7.73;;
44536;SDS011;30245;51.966;6.292;2024-01-07T05:33:08;7.90;;;6.13;;
44536;SDS011;30245;51.966;6.292;2024-01-07T05:35:35;11.37;;;7.83;;
44536;SDS011;30245;51.966;6.292;2024-01-07T05:38:00;10.43;;;7.60;;
44536;SDS011;30245;51.966;6.292;2024-01-07T05:40:26;10.47;;;7.07;;
44536;SDS011;30245;51.966;6.292;2024-01-07T05:42:51;9.53;;;7.10;;
44536;SDS011;30245;51.966;6.292;2024-01-07T05:45:17;13.37;;;7.37;;
44536;SDS011;30245;51.966;6.292;2024-01-07T05:47:43;10.50;;;7.13;;
44536;SDS011;30245;51.966;6.292;2024-01-07T05:50:08;11.57;;;7.47;;
44536;SDS011;30245;51.966;6.292;2024-01-07T05:52:35;11.90;;;7.20;;
44536;SDS011;30245;51.966;6.292;2024-01-07T05:55:01;9.63;;;7.67;;
44536;SDS011;30245;51.966;6.292;2024-01-07T05:57:26;8.87;;;6.53;;
44536;SDS011;30245;51.966;6.292;2024-01-07T05:59:52;9.73;;;7.63;;
44536;SDS011;30245;51.966;6.292;2024-01-07T06:02:17;11.87;;;8.27;;
44536;SDS011;30245;51.966;6.292;2024-01-07T06:04:43;8.70;;;6.40;;
44536;SDS011;30245;51.966;6.292;2024-01-07T06:07:09;10.50;;;6.60;;
44536;SDS011;30245;51.966;6.292;2024-01-07T06:09:35;7.47;;;6.70;;
44536;SDS011;30245;51.966;6.292;2024-01-07T06:12:00;10.63;;;6.97;;
44536;SDS011;30245;51.966;6.292;2024-01-07T06:14:26;10.63;;;7.90;;
44536;SDS011;30245;51.966;6.292;2024-01-07T06:16:51;8.87;;;6.87;;
44536;SDS011;30245;51.966;6.292;2024-01-07T06:19:17;8.07;;;5.90;;
44536;SDS011;30245;51.966;6.292;2024-01-07T06:21:43;8.67;;;6.70;;
44536;SDS011;30245;51.966;6.292;2024-01-07T06:24:09;8.90;;;6.17;;
44536;SDS011;30245;51.966;6.292;2024-01-07T06:26:35;10.40;;;6.50;;
44536;SDS011;30245;51.966;6.292;2024-01-07T06:29:00;9.20;;;7.23;;
44536;SDS011;30245;51.966;6.292;2024-01-07T06:31:26;9.20;;;7.00;;
44536;SDS011;30245;51.966;6.292;2024-01-07T06:33:52;13.93;;;6.93;;
44536;SDS011;30245;51.966;6.292;2024-01-07T06:36:17;10.07;;;7.40;;
44536;SDS011;30245;51.966;6.292;2024-01-07T06:38:43;12.13;;;8.23;;
44536;SDS011;30245;51.966;6.292;2024-01-07T06:41:12;8.60;;;6.97;;
44536;SDS011;30245;51.966;6.292;2024-01-07T06:46:03;9.77;;;6.60;;
44536;SDS011;30245;51.966;6.292;2024-01-07T06:48:29;7.60;;;6.03;;
44536;SDS011;30245;51.966;6.292;2024-01-07T06:50:55;9.30;;;7.50;;
44536;SDS011;30245;51.966;6.292;2024-01-07T06:53:21;8.30;;;6.53;;
44536;SDS011;30245;51.966;6.292;2024-01-07T06:55:46;9.87;;;6.07;;
44536;SDS011;30245;51.966;6.292;2024-01-07T06:58:12;8.33;;;5.77;;
44536;SDS011;30245;51.966;6.292;2024-01-07T07:00:38;6.97;;;6.13;;
44536;SDS011;30245;51.966;6.292;2024-01-07T07:03:03;7.30;;;5.20;;
44536;SDS011;30245;51.966;6.292;2024-01-07T07:05:30;7.47;;;5.57;;
44536;SDS011;30245;51.966;6.292;2024-01-07T07:07:56;7.07;;;5.70;;
44536;SDS011;30245;51.966;6.292;2024-01-07T07:10:21;5.63;;;5.10;;
44536;SDS011;30245;51.966;6.292;2024-01-07T07:12:47;6.47;;;4.80;;
44536;SDS011;30245;51.966;6.292;2024-01-07T07:15:13;7.30;;;5.73;;
44536;SDS011;30245;51.966;6.292;2024-01-07T07:17:38;8.87;;;4.83;;
44536;SDS011;30245;51.966;6.292;2024-01-07T07:20:05;7.93;;;4.73;;
44536;SDS011;30245;51.966;6.292;2024-01-07T07:22:31;8.23;;;5.60;;
44536;SDS011;30245;51.966;6.292;2024-01-07T07:24:56;5.87;;;4.80;;
44536;SDS011;30245;51.966;6.292;2024-01-07T07:27:22;5.93;;;5.33;;
44536;SDS011;30245;51.966;6.292;2024-01-07T07:29:47;6.97;;;5.37;;
44536;SDS011;30245;51.966;6.292;2024-01-07T07:32:13;9.13;;;6.57;;
44536;SDS011;30245;51.966;6.292;2024-01-07T07:34:38;7.90;;;5.73;;
44536;SDS011;30245;51.966;6.292;2024-01-07T07:37:04;7.50;;;5.10;;
44536;SDS011;30245;51.966;6.292;2024-01-07T07:39:29;6.87;;;5.00;;
44536;SDS011;30245;51.966;6.292;2024-01-07T07:41:55;7.17;;;5.03;;
44536;SDS011;30245;51.966;6.292;2024-01-07T07:44:20;6.50;;;5.80;;
44536;SDS011;30245;51.966;6.292;2024-01-07T07:46:46;6.07;;;5.17;;
44536;SDS011;30245;51.966;6.292;2024-01-07T07:49:11;5.83;;;5.23;;
44536;SDS011;30245;51.966;6.292;2024-01-07T07:51:38;4.70;;;4.03;;
44536;SDS011;30245;51.966;6.292;2024-01-07T07:54:03;6.80;;;5.00;;
44536;SDS011;30245;51.966;6.292;2024-01-07T07:56:29;6.13;;;5.53;;
44536;SDS011;30245;51.966;6.292;2024-01-07T07:58:54;6.07;;;4.77;;
44536;SDS011;30245;51.966;6.292;2024-01-07T08:01:20;5.90;;;5.30;;
44536;SDS011;30245;51.966;6.292;2024-01-07T08:03:46;7.30;;;5.07;;
44536;SDS011;30245;51.966;6.292;2024-01-07T08:06:11;18.10;;;10.13;;
44536;SDS011;30245;51.966;6.292;2024-01-07T08:08:37;11.23;;;6.50;;
44536;SDS011;30245;51.966;6.292;2024-01-07T08:11:02;8.63;;;6.77;;
44536;SDS011;30245;51.966;6.292;2024-01-07T08:13:31;10.45;;;7.45;;
44536;SDS011;30245;51.966;6.292;2024-01-07T08:15:56;7.53;;;6.17;;
44536;SDS011;30245;51.966;6.292;2024-01-07T08:18:22;8.43;;;5.87;;
44536;SDS011;30245;51.966;6.292;2024-01-07T08:20:47;6.27;;;4.70;;
44536;SDS011;30245;51.966;6.292;2024-01-07T08:23:13;4.80;;;4.40;;
44536;SDS011;30245;51.966;6.292;2024-01-07T08:25:39;7.00;;;5.37;;
44536;SDS011;30245;51.966;6.292;2024-01-07T08:28:04;4.97;;;4.47;;
44536;SDS011;30245;51.966;6.292;2024-01-07T08:30:30;7.47;;;5.50;;
44536;SDS011;30245;51.966;6.292;2024-01-07T08:32:55;8.33;;;7.30;;
44536;SDS011;30245;51.966;6.292;2024-01-07T08:35:21;9.70;;;7.40;;
44536;SDS011;30245;51.966;6.292;2024-01-07T08:37:47;7.20;;;5.73;;
44536;SDS011;30245;51.966;6.292;2024-01-07T08:40:12;6.90;;;5.47;;
44536;SDS011;30245;51.966;6.292;2024-01-07T08:42:38;5.87;;;5.37;;
44536;SDS011;30245;51.966;6.292;2024-01-07T08:45:04;6.73;;;5.27;;
44536;SDS011;30245;51.966;6.292;2024-01-07T08:47:30;5.37;;;4.50;;
44536;SDS011;30245;51.966;6.292;2024-01-07T08:49:56;5.33;;;4.93;;
44536;SDS011;30245;51.966;6.292;2024-01-07T08:52:22;6.93;;;5.40;;
44536;SDS011;30245;51.966;6.292;2024-01-07T08:54:48;5.80;;;5.20;;
44536;SDS011;30245;51.966;6.292;2024-01-07T08:57:14;5.90;;;5.40;;
44536;SDS011;30245;51.966;6.292;2024-01-07T08:59:40;5.57;;;4.47;;
44536;SDS011;30245;51.966;6.292;2024-01-07T09:02:05;7.60;;;4.90;;
44536;SDS011;30245;51.966;6.292;2024-01-07T09:04:31;4.40;;;4.00;;
44536;SDS011;30245;51.966;6.292;2024-01-07T09:06:58;7.97;;;5.27;;
44536;SDS011;30245;51.966;6.292;2024-01-07T09:09:24;7.37;;;4.63;;
44536;SDS011;30245;51.966;6.292;2024-01-07T09:11:49;6.13;;;5.03;;
44536;SDS011;30245;51.966;6.292;2024-01-07T09:14:17;6.20;;;5.60;;
44536;SDS011;30245;51.966;6.292;2024-01-07T09:16:42;7.73;;;4.90;;
44536;SDS011;30245;51.966;6.292;2024-01-07T09:19:08;6.93;;;4.90;;
44536;SDS011;30245;51.966;6.292;2024-01-07T09:21:33;6.63;;;4.97;;
44536;SDS011;30245;51.966;6.292;2024-01-07T09:23:59;5.80;;;5.30;;
44536;SDS011;30245;51.966;6.292;2024-01-07T09:26:24;9.97;;;6.30;;
44536;SDS011;30245;51.966;6.292;2024-01-07T09:28:50;7.47;;;5.33;;
44536;SDS011;30245;51.966;6.292;2024-01-07T09:31:16;6.17;;;5.17;;
44536;SDS011;30245;51.966;6.292;2024-01-07T09:33:42;5.97;;;4.90;;
44536;SDS011;30245;51.966;6.292;2024-01-07T09:36:08;7.77;;;5.53;;
44536;SDS011;30245;51.966;6.292;2024-01-07T09:38:34;9.20;;;4.97;;
44536;SDS011;30245;51.966;6.292;2024-01-07T09:40:59;6.27;;;4.60;;
44536;SDS011;30245;51.966;6.292;2024-01-07T09:43:25;7.90;;;3.77;;
44536;SDS011;30245;51.966;6.292;2024-01-07T09:45:50;4.93;;;4.37;;
44536;SDS011;30245;51.966;6.292;2024-01-07T09:48:18;6.63;;;5.40;;
44536;SDS011;30245;51.966;6.292;2024-01-07T09:50:44;4.63;;;3.87;;
44536;SDS011;30245;51.966;6.292;2024-01-07T09:53:14;6.33;;;4.77;;
44536;SDS011;30245;51.966;6.292;2024-01-07T09:55:51;6.17;;;4.47;;
44536;SDS011;30245;51.966;6.292;2024-01-07T09:58:21;6.90;;;5.10;;
44536;SDS011;30245;51.966;6.292;2024-01-07T10:00:47;5.23;;;4.83;;
44536;SDS011;30245;51.966;6.292;2024-01-07T10:03:13;8.37;;;4.07;;
44536;SDS011;30245;51.966;6.292;2024-01-07T10:05:39;5.73;;;4.43;;
44536;SDS011;30245;51.966;6.292;2024-01-07T10:08:05;3.97;;;3.57;;
44536;SDS011;30245;51.966;6.292;2024-01-07T10:10:31;4.47;;;4.07;;
44536;SDS011;30245;51.966;6.292;2024-01-07T10:12:57;4.00;;;3.17;;
44536;SDS011;30245;51.966;6.292;2024-01-07T10:15:23;5.87;;;4.50;;
44536;SDS011;30245;51.966;6.292;2024-01-07T10:17:48;5.57;;;3.10;;
44536;SDS011;30245;51.966;6.292;2024-01-07T10:20:14;5.33;;;3.47;;
44536;SDS011;30245;51.966;6.292;2024-01-07T10:22:41;4.40;;;3.07;;
44536;SDS011;30245;51.966;6.292;2024-01-07T10:25:14;5.03;;;3.23;;
44536;SDS011;30245;51.966;6.292;2024-01-07T10:27:40;4.80;;;3.07;;
44536;SDS011;30245;51.966;6.292;2024-01-07T10:30:06;5.13;;;2.30;;
44536;SDS011;30245;51.966;6.292;2024-01-07T10:32:31;3.90;;;2.20;;
44536;SDS011;30245;51.966;6.292;2024-01-07T10:35:04;3.13;;;2.13;;
44536;SDS011;30245;51.966;6.292;2024-01-07T10:37:31;2.53;;;1.53;;
44536;SDS011;30245;51.966;6.292;2024-01-07T10:39:58;3.33;;;1.37;;
44536;SDS011;30245;51.966;6.292;2024-01-07T10:42:30;2.20;;;1.57;;
44536;SDS011;30245;51.966;6.292;2024-01-07T10:44:57;2.90;;;1.63;;
44536;SDS011;30245;51.966;6.292;2024-01-07T10:47:23;3.93;;;1.23;;
44536;SDS011;30245;51.966;6.292;2024-01-07T10:49:54;3.87;;;1.57;;
44536;SDS011;30245;51.966;6.292;2024-01-07T10:52:22;2.40;;;1.33;;
44536;SDS011;30245;51.966;6.292;2024-01-07T10:54:48;3.87;;;1.67;;
44536;SDS011;30245;51.966;6.292;2024-01-07T10:57:21;2.70;;;1.57;;
44536;SDS011;30245;51.966;6.292;2024-01-07T10:59:56;3.27;;;1.33;;
44536;SDS011;30245;51.966;6.292;2024-01-07T11:02:23;1.77;;;1.03;;
44536;SDS011;30245;51.966;6.292;2024-01-07T11:04:51;2.80;;;1.93;;
44536;SDS011;30245;51.966;6.292;2024-01-07T11:07:39;3.27;;;1.23;;
44536;SDS011;30245;51.966;6.292;2024-01-07T11:12:43;2.83;;;1.43;;
44536;SDS011;30245;51.966;6.292;2024-01-07T11:15:09;2.43;;;1.13;;
44536;SDS011;30245;51.966;6.292;2024-01-07T11:20:01;1.37;;;0.80;;
44536;SDS011;30245;51.966;6.292;2024-01-07T11:22:31;3.23;;;1.27;;
44536;SDS011;30245;51.966;6.292;2024-01-07T11:24:58;1.60;;;0.67;;
44536;SDS011;30245;51.966;6.292;2024-01-07T11:27:25;1.83;;;0.80;;
44536;SDS011;30245;51.966;6.292;2024-01-07T11:29:56;5.85;;;1.17;;
44536;SDS011;30245;51.966;6.292;2024-01-07T11:32:23;2.80;;;0.97;;
44536;SDS011;30245;51.966;6.292;2024-01-07T11:34:53;2.93;;;1.30;;
44536;SDS011;30245;51.966;6.292;2024-01-07T11:37:22;6.20;;;3.20;;
44536;SDS011;30245;51.966;6.292;2024-01-07T11:39:48;1.77;;;0.70;;
44536;SDS011;30245;51.966;6.292;2024-01-07T11:42:15;1.87;;;0.77;;
44536;SDS011;30245;51.966;6.292;2024-01-07T11:44:44;1.37;;;0.70;;
44536;SDS011;30245;51.966;6.292;2024-01-07T11:47:12;1.50;;;0.50;;
44536;SDS011;30245;51.966;6.292;2024-01-07T11:49:38;1.57;;;0.80;;
44536;SDS011;30245;51.966;6.292;2024-01-07T11:52:04;1.17;;;0.57;;
44536;SDS011;30245;51.966;6.292;2024-01-07T11:54:31;2.33;;;0.83;;
44536;SDS011;30245;51.966;6.292;2024-01-07T11:56:56;1.70;;;0.60;;
44536;SDS011;30245;51.966;6.292;2024-01-07T11:59:22;1.23;;;0.33;;
44536;SDS011;30245;51.966;6.292;2024-01-07T12:01:48;1.80;;;0.50;;
44536;SDS011;30245;51.966;6.292;2024-01-07T12:04:14;0.77;;;0.37;;
44536;SDS011;30245;51.966;6.292;2024-01-07T12:06:39;1.40;;;0.60;;
44536;SDS011;30245;51.966;6.292;2024-01-07T12:09:05;0.40;;;0.30;;
44536;SDS011;30245;51.966;6.292;2024-01-07T12:11:31;2.50;;;0.70;;
44536;SDS011;30245;51.966;6.292;2024-01-07T12:13:57;3.87;;;0.70;;
44536;SDS011;30245;51.966;6.292;2024-01-07T12:16:24;1.20;;;0.90;;
44536;SDS011;30245;51.966;6.292;2024-01-07T12:18:50;3.17;;;0.50;;
44536;SDS011;30245;51.966;6.292;2024-01-07T12:21:19;1.20;;;0.43;;
44536;SDS011;30245;51.966;6.292;2024-01-07T12:23:47;1.60;;;0.40;;
44536;SDS011;30245;51.966;6.292;2024-01-07T12:26:15;1.17;;;0.40;;
44536;SDS011;30245;51.966;6.292;2024-01-07T12:28:41;3.23;;;0.50;;
44536;SDS011;30245;51.966;6.292;2024-01-07T12:31:07;0.90;;;0.40;;
44536;SDS011;30245;51.966;6.292;2024-01-07T12:33:34;1.97;;;0.60;;
44536;SDS011;30245;51.966;6.292;2024-01-07T12:36:01;0.97;;;0.40;;
44536;SDS011;30245;51.966;6.292;2024-01-07T12:38:27;1.27;;;0.40;;
44536;SDS011;30245;51.966;6.292;2024-01-07T12:40:53;1.97;;;0.40;;
44536;SDS011;30245;51.966;6.292;2024-01-07T12:43:19;0.80;;;0.50;;
44536;SDS011;30245;51.966;6.292;2024-01-07T12:45:45;0.63;;;0.20;;
44536;SDS011;30245;51.966;6.292;2024-01-07T12:48:13;2.05;;;0.50;;
44536;SDS011;30245;51.966;6.292;2024-01-07T12:50:39;2.37;;;0.73;;
44536;SDS011;30245;51.966;6.292;2024-01-07T12:53:05;1.03;;;0.40;;
44536;SDS011;30245;51.966;6.292;2024-01-07T12:55:30;2.60;;;0.40;;
44536;SDS011;30245;51.966;6.292;2024-01-07T12:57:57;1.00;;;0.40;;
44536;SDS011;30245;51.966;6.292;2024-01-07T13:00:23;1.17;;;0.40;;
44536;SDS011;30245;51.966;6.292;2024-01-07T13:02:50;1.67;;;0.80;;
44536;SDS011;30245;51.966;6.292;2024-01-07T13:05:16;1.97;;;0.40;;
44536;SDS011;30245;51.966;6.292;2024-01-07T13:07:42;0.77;;;0.47;;
44536;SDS011;30245;51.966;6.292;2024-01-07T13:10:07;0.60;;;0.40;;
44536;SDS011;30245;51.966;6.292;2024-01-07T13:12:34;1.03;;;0.50;;
44536;SDS011;30245;51.966;6.292;2024-01-07T13:15:01;1.23;;;0.50;;
44536;SDS011;30245;51.966;6.292;2024-01-07T13:17:27;1.50;;;0.80;;
44536;SDS011;30245;51.966;6.292;2024-01-07T13:19:54;0.80;;;0.40;;
44536;SDS011;30245;51.966;6.292;2024-01-07T13:22:20;1.13;;;0.60;;
44536;SDS011;30245;51.966;6.292;2024-01-07T13:24:46;0.67;;;0.50;;
44536;SDS011;30245;51.966;6.292;2024-01-07T13:27:11;1.27;;;0.53;;
44536;SDS011;30245;51.966;6.292;2024-01-07T13:29:38;1.43;;;0.50;;
44536;SDS011;30245;51.966;6.292;2024-01-07T13:32:04;1.83;;;0.50;;
44536;SDS011;30245;51.966;6.292;2024-01-07T13:34:29;1.43;;;0.50;;
44536;SDS011;30245;51.966;6.292;2024-01-07T13:36:55;1.17;;;0.40;;
44536;SDS011;30245;51.966;6.292;2024-01-07T13:39:21;2.37;;;0.40;;
44536;SDS011;30245;51.966;6.292;2024-01-07T13:41:46;1.63;;;0.60;;
44536;SDS011;30245;51.966;6.292;2024-01-07T13:44:13;2.33;;;0.60;;
44536;SDS011;30245;51.966;6.292;2024-01-07T13:46:45;0.70;;;0.40;;
44536;SDS011;30245;51.966;6.292;2024-01-07T13:49:12;0.77;;;0.60;;
44536;SDS011;30245;51.966;6.292;2024-01-07T13:51:38;1.00;;;0.43;;
44536;SDS011;30245;51.966;6.292;2024-01-07T13:54:04;2.37;;;0.40;;
44536;SDS011;30245;51.966;6.292;2024-01-07T13:56:31;1.60;;;0.43;;
44536;SDS011;30245;51.966;6.292;2024-01-07T13:58:56;0.80;;;0.60;;
44536;SDS011;30245;51.966;6.292;2024-01-07T14:01:22;1.40;;;0.40;;
44536;SDS011;30245;51.966;6.292;2024-01-07T14:03:48;1.10;;;0.60;;
44536;SDS011;30245;51.966;6.292;2024-01-07T14:06:13;0.97;;;0.50;;
44536;SDS011;30245;51.966;6.292;2024-01-07T14:08:39;1.73;;;0.30;;
44536;SDS011;30245;51.966;6.292;2024-01-07T14:11:04;1.97;;;0.40;;
44536;SDS011;30245;51.966;6.292;2024-01-07T14:13:32;0.90;;;0.43;;
44536;SDS011;30245;51.966;6.292;2024-01-07T14:15:57;0.80;;;0.40;;
44536;SDS011;30245;51.966;6.292;2024-01-07T14:18:23;1.20;;;0.40;;
44536;SDS011;30245;51.966;6.292;2024-01-07T14:20:49;1.53;;;0.40;;
44536;SDS011;30245;51.966;6.292;2024-01-07T14:23:14;2.00;;;1.07;;
44536;SDS011;30245;51.966;6.292;2024-01-07T14:25:40;0.90;;;0.33;;
44536;SDS011;30245;51.966;6.292;2024-01-07T14:28:06;0.77;;;0.43;;
44536;SDS011;30245;51.966;6.292;2024-01-07T14:30:32;1.67;;;0.50;;
44536;SDS011;30245;51.966;6.292;2024-01-07T14:32:58;1.80;;;0.50;;
44536;SDS011;30245;51.966;6.292;2024-01-07T14:35:24;2.10;;;0.40;;
44536;SDS011;30245;51.966;6.292;2024-01-07T14:37:51;0.80;;;0.40;;
44536;SDS011;30245;51.966;6.292;2024-01-07T14:40:17;0.97;;;0.50;;
44536;SDS011;30245;51.966;6.292;2024-01-07T14:42:43;1.13;;;0.70;;
44536;SDS011;30245;51.966;6.292;2024-01-07T14:45:09;1.13;;;0.40;;